Accueil
METAR-TAF:

METAR-TAF

Aéroports :

Aéroport de Perth

Perth, Australie

latitude: 31-56S, longitude: 115-57E, altitude: 20 m

Observation

Le bulletin a été fait il y a 36 minutes, à 23:00 UTC
Vent 8 kt de sud-ouest
Température 16°C
Humidité 51%
Pression 1019 hPa
Visibilité 10 km ou plus
Quelques nuages à une hauteur de 3600 ft
Nuages fragmentés à une hauteur de 5000 ft
averses à proximité

METAR: YPPH 212300Z 23008KT 9999 VCSH FEW036 BKN050 16/06 Q1019

Heure: 07:36 (23:36 UTC)

Prévision

Le bulletin a été fait il y a 40 minutes, à 22:56 UTC
Prévision valable du 22 à 00 UTC au 23 à 06 UTC
Vent 8 kt de sud-ouest
Visibilité 10 km ou plus
Quelques nuages à une hauteur de 4000 ft
Nuages fragmentés à une hauteur de 5000 ft
A partir de 22 à 1200 UTC
Vent 5 kt de sud-est
Visibilité 10 km ou plus
pas de nuages en-dessous de 1500 mètres et pas de cumulonimbus.

TAF: YPPH 212256Z 2200/2306 22008KT 9999 FEW040 BKN050 FM221200 13005KT CAVOK

Observations et prévisions météorologiques de plus de 4000 aéroports (messages METAR et TAF).

Les stations disponibles sont représentées par des disques jaunes et rouges sur la carte.

Passer la souris dessus pour voir le nom de la station.

Cliquer dessus pour voir les observations et prévisions météorologiques.

Pour changer de carte: cliquez sur les boutons verts avec une croix noire pour zoomer, sur le bouton vert avec un tiret pour effectuer un zoom arrière, ou sur les flèches vertes pour les cartes adjacentes.


METAR-TAF: